Ontonagon, MI (49953)

11:51 AM EDT on July 23, 2014 (GMT -0400)
Mountain View Lodges, Silver City, MI / Porcupine Mountains Area (KMISILVE1) Elev 587 ft | 46.83 °N, 89.58 °W | Change Station

Current weather conditions updated 1 minute ago

Mostly Cloudy
Mostly Cloudy
63.4 °F
Feels Like 63.4 °F
N
1.0
Wind Variable Wind from NNW
Gusts 1.0 mph

Today is forecast to be Much Cooler than yesterday.

Today
High -- | Low -- °F
--% Chance of Precip.
Yesterday
High -- | Low -- °F
Precip. -- in
6:26 AM 9:40 PM
Waning Crescent, 10% visible
Pressure 30.24 in
Visibility 10.0 miles
Clouds Clear
Dew Point 59 °F
Humidity 85%
Rainfall 0.00 in
Snow Depth Not available.
UV 6 out of 12
Pollen 5.20 out of 12
Air Quality Not available.
Flu Activity Not available.
METAR KCMX 231453Z AUTO VRB05KT 10SM CLR 18/09 A3023 RMK AO2 SLP239 T01830089 51007

More Conditions Fewer Conditions

Pressure 30.24 in
Visibility 10.0 miles
Clouds Clear
Dew Point 59 °F
Humidity 85%
Rainfall 0.00 in
Snow Depth Not available.
UV 6 out of 12
Pollen 5.20 out of 12
Air Quality Not available.
Flu Activity Not available.
METAR KCMX 231453Z AUTO VRB05KT 10SM CLR 18/09 A3023 RMK AO2 SLP239 T01830089 51007

More Conditions Fewer Conditions

10-Day Weather Forecast

Almanac

Astronomy

Jul. 23, 2014 Rise Set
Actual Time 6:26 AM EDT 9:40 PM EDT
Civil Twilight 5:49 AM EDT 10:16 PM EDT
Nautical Twilight 5:01 AM EDT 11:04 PM EDT
Astronomical Twilight 4:01 AM EDT 12:03 AM EDT
Moon 3:47 AM EDT 7:07 PM EDT
Length of Visible Light 16h 27m
Length of Day
15h 13m
Tomorrow will be 2m 14s shorter.
Waning Crescent, 10% of the Moon is Illuminated
Today
Waning Crescent
Jul 26
New
Aug 3
First Quarter
Aug 10
Full
Aug 17
Last Quarter

Today's Extremes

State Highs State Lows

Community

WunderPhotos

Upload Photos

1,736,644 photos uploaded!

Nearby

Snow Depth

Station Depth Elevation
No new snow has been reported.

Earthquake Activity

City Distance Mag. Time & Date
No recent earthquake activity has been reported nearby.
Minimum magnitude displayed is 2.5.

Coastal Water Temperatures

Place Temperature
No Stations Reporting

Nearby Weather Stations

Station Location Temp. Dew Point Humidity Wind Precip. Elev Updated Type
Mountain View Lodges, Silver City, MI / , Ontonagon, MI 63.4 °F 59 °F 85% NNW  at  1.0 mph 0.00 in / hr 587 ft 11:50 AM EDT Normal

Show More Stations Show Fewer Stations